Time;durP1;ratioP1;P1;durP2;ratioP2;P2;SDS_P1;SDS_P2;PMS_P1;PMS_P2;Temp;Humidity;BMP_temperature;BMP_pressure;BME280_temperature;BME280_humidity;BME280_pressure;Samples;Min_cycle;Max_cycle;Signal;HPM_P1;HPM_P2
2023/05/11 00:01:31;;;;;;;3.47;2.85;;;14.00;99.90;;;;;;5016230;28;20037;-74
2023/05/11 00:03:56;;;;;;;5.82;1.95;;;14.00;99.90;;;;;;4998266;28;20029;-74
2023/05/11 00:06:22;;;;;;;1.95;1.55;;;13.90;99.90;;;;;;5016262;28;20168;-74
2023/05/11 00:08:48;;;;;;;5.28;1.92;;;13.90;99.90;;;;;;4998091;28;20026;-74
2023/05/11 00:11:13;;;;;;;4.05;1.48;;;13.90;99.90;;;;;;5015912;28;20037;-74
2023/05/11 00:13:39;;;;;;;3.80;1.77;;;13.90;99.90;;;;;;5015619;28;20473;-74
2023/05/11 00:16:05;;;;;;;6.00;1.75;;;13.90;99.90;;;;;;5014222;28;20489;-74
2023/05/11 00:18:31;;;;;;;4.20;1.90;;;13.80;99.90;;;;;;4997946;28;20036;-74
2023/05/11 00:20:57;;;;;;;2.92;1.70;;;13.80;99.90;;;;;;5015172;28;20030;-74
2023/05/11 00:23:23;;;;;;;2.13;1.60;;;13.80;99.90;;;;;;4996748;28;20481;-74
2023/05/11 00:25:48;;;;;;;4.15;1.70;;;13.80;99.90;;;;;;5015374;28;20026;-74
2023/05/11 00:28:14;;;;;;;3.88;1.90;;;13.80;99.90;;;;;;5015571;28;20480;-74
2023/05/11 00:30:40;;;;;;;4.40;1.55;;;13.80;99.90;;;;;;5015486;28;20477;-74
2023/05/11 00:33:06;;;;;;;4.72;3.03;;;13.70;99.90;;;;;;5015031;28;20049;-74
2023/05/11 00:35:32;;;;;;;2.08;1.80;;;13.70;99.90;;;;;;5015258;28;20034;-74
2023/05/11 00:37:58;;;;;;;9.82;2.22;;;13.70;99.90;;;;;;5015319;28;20045;-74
2023/05/11 00:40:23;;;;;;;5.25;1.75;;;13.70;99.90;;;;;;5015200;28;20025;-74
2023/05/11 00:42:49;;;;;;;4.50;2.10;;;13.60;99.90;;;;;;4997818;28;20030;-74
2023/05/11 00:45:15;;;;;;;3.72;1.80;;;13.60;99.90;;;;;;5014990;28;20030;-74
2023/05/11 00:47:42;;;;;;;2.72;1.90;;;13.60;99.90;;;;;;4997537;28;20050;-74
2023/05/11 00:50:08;;;;;;;5.88;1.90;;;13.60;99.90;;;;;;5014975;28;20034;-74
2023/05/11 00:52:34;;;;;;;2.80;1.52;;;13.60;99.90;;;;;;5015490;28;20061;-74
2023/05/11 00:55:00;;;;;;;1.98;1.50;;;13.60;99.90;;;;;;4997621;28;20609;-74
2023/05/11 00:57:26;;;;;;;2.50;2.05;;;13.60;99.90;;;;;;5014709;28;20045;-74
2023/05/11 00:59:51;;;;;;;4.90;1.85;;;13.60;99.90;;;;;;4997214;28;20041;-74
2023/05/11 01:02:18;;;;;;;5.50;1.77;;;13.60;99.90;;;;;;5014479;28;20141;-74
2023/05/11 01:04:44;;;;;;;3.95;1.70;;;13.60;99.90;;;;;;5014879;28;20109;-74
2023/05/11 01:07:23;;;;;;;2.60;1.85;;;13.60;99.90;;;;;;4997947;28;20026;-74
2023/05/11 01:09:52;;;;;;;2.00;1.75;;;13.50;99.90;;;;;;5014932;28;20021;-75
2023/05/11 01:12:28;;;;;;;3.20;1.85;;;13.60;99.90;;;;;;5014785;28;20022;-74
2023/05/11 01:15:06;;;;;;;3.63;1.88;;;13.60;99.90;;;;;;5014838;28;20045;-74
2023/05/11 01:17:59;;;;;;;4.47;1.65;;;13.60;99.90;;;;;;5014836;28;20026;-74
2023/05/11 01:20:28;;;;;;;4.78;2.00;;;13.60;99.90;;;;;;4996964;28;20026;-74
2023/05/11 01:23:24;;;;;;;3.22;1.90;;;13.60;99.90;;;;;;5014544;28;20026;-74
2023/05/11 01:26:07;;;;;;;2.13;1.60;;;13.60;99.90;;;;;;5014601;28;20034;-74
2023/05/11 01:28:51;;;;;;;2.00;1.75;;;13.50;99.90;;;;;;4997226;28;20053;-74
2023/05/11 01:31:19;;;;;;;2.88;1.77;;;13.60;99.90;;;;;;5015678;28;20476;-74
2023/05/11 01:33:56;;;;;;;3.75;1.95;;;13.60;99.90;;;;;;5014982;28;20022;-74
2023/05/11 01:36:28;;;;;;;3.85;2.35;;;13.50;99.90;;;;;;5015307;28;20386;-74
2023/05/11 01:38:57;;;;;;;2.90;1.52;;;13.50;99.90;;;;;;5014859;28;20030;-74
2023/05/11 01:41:23;;;;;;;;;;;13.50;99.90;;;;;;5014932;28;20026;-74
2023/05/11 01:43:59;;;;;;;3.60;1.92;;;13.50;99.90;;;;;;5014134;28;19912;-74
2023/05/11 01:46:28;;;;;;;4.57;1.75;;;13.50;99.90;;;;;;5014434;28;20054;-74
2023/05/11 01:48:55;;;;;;;;;;;13.50;99.90;;;;;;5013425;28;20026;-74
2023/05/11 01:51:24;;;;;;;2.65;1.70;;;13.50;99.90;;;;;;5013755;28;19905;-74
2023/05/11 01:53:52;;;;;;;1.88;1.67;;;13.50;99.90;;;;;;5003155;28;20034;-75
2023/05/11 01:56:20;;;;;;;2.80;1.80;;;13.40;99.90;;;;;;5018722;28;20563;-74
2023/05/11 01:58:48;;;;;;;2.67;1.87;;;13.40;99.90;;;;;;4998780;28;20080;-74
2023/05/11 02:01:16;;;;;;;3.20;1.67;;;13.40;99.90;;;;;;5014466;28;20116;-74
2023/05/11 02:03:44;;;;;;;3.85;1.50;;;13.40;99.90;;;;;;5016104;28;20025;-74
2023/05/11 02:06:12;;;;;;;1.90;1.58;;;13.40;99.90;;;;;;5016833;28;20026;-75
2023/05/11 02:08:39;;;;;;;4.35;1.92;;;13.40;99.90;;;;;;5016141;28;20045;-74
2023/05/11 02:11:06;;;;;;;3.05;1.60;;;13.40;99.90;;;;;;5013975;28;20045;-74
2023/05/11 02:13:34;;;;;;;1.85;1.67;;;13.40;99.90;;;;;;5013737;28;20022;-74
2023/05/11 02:16:01;;;;;;;3.78;2.10;;;13.30;99.90;;;;;;5013603;28;20038;-74
2023/05/11 02:18:28;;;;;;;5.10;2.05;;;13.30;99.90;;;;;;5013953;28;20033;-74
2023/05/11 02:20:56;;;;;;;1.70;1.60;;;13.30;99.90;;;;;;4996245;28;20124;-74
2023/05/11 02:23:25;;;;;;;5.03;1.70;;;13.30;99.90;;;;;;5014992;28;20113;-74
2023/05/11 02:25:52;;;;;;;3.88;1.95;;;13.30;99.90;;;;;;4998361;28;20030;-75
2023/05/11 02:28:18;;;;;;;5.03;1.98;;;13.30;99.90;;;;;;5000640;28;20025;-75
2023/05/11 02:30:46;;;;;;;2.22;1.63;;;13.30;99.90;;;;;;5015654;28;20079;-74
2023/05/11 02:33:21;;;;;;;2.78;2.25;;;13.30;99.90;;;;;;5014369;28;20053;-74
2023/05/11 02:35:48;;;;;;;3.10;1.80;;;13.20;99.90;;;;;;5013880;28;20034;-74
2023/05/11 02:38:16;;;;;;;6.65;2.30;;;13.20;99.90;;;;;;5013606;28;20419;-74
2023/05/11 02:40:46;;;;;;;3.38;2.42;;;13.20;99.90;;;;;;5014285;28;20049;-74
2023/05/11 02:43:14;;;;;;;2.10;1.90;;;13.20;99.90;;;;;;5013737;28;20033;-74
2023/05/11 02:45:43;;;;;;;2.70;1.67;;;13.20;99.90;;;;;;5013711;28;20053;-74
2023/05/11 02:48:11;;;;;;;;;;;13.20;99.90;;;;;;5017540;28;20454;-74
2023/05/11 02:50:39;;;;;;;2.33;1.67;;;13.20;99.90;;;;;;5000159;28;19905;-74
2023/05/11 02:53:13;;;;;;;1.98;1.17;;;13.20;99.90;;;;;;5000719;28;20382;-75
2023/05/11 02:55:39;;;;;;;3.47;2.30;;;13.10;99.90;;;;;;5000436;28;20479;-74
2023/05/11 02:58:04;;;;;;;2.60;1.83;;;13.10;99.90;;;;;;5017607;28;20030;-74
2023/05/11 03:00:30;;;;;;;4.63;2.00;;;13.10;99.90;;;;;;5017321;28;20045;-74
2023/05/11 03:02:56;;;;;;;3.85;1.65;;;13.10;99.90;;;;;;5017447;28;20049;-74
2023/05/11 03:05:23;;;;;;;2.05;1.70;;;13.00;99.90;;;;;;5016921;28;20109;-74
2023/05/11 03:07:48;;;;;;;4.00;2.40;;;13.10;99.90;;;;;;4999208;28;20037;-74
2023/05/11 03:10:14;;;;;;;2.42;1.88;;;13.00;99.90;;;;;;5017201;28;20026;-74
2023/05/11 03:12:40;;;;;;;3.60;1.83;;;13.00;99.90;;;;;;5016792;28;20057;-74
2023/05/11 03:15:06;;;;;;;5.93;2.30;;;13.00;99.90;;;;;;5016335;28;20069;-74
2023/05/11 03:17:33;;;;;;;3.30;1.63;;;13.00;99.90;;;;;;5016713;28;20030;-74
2023/05/11 03:20:02;;;;;;;11.52;2.80;;;12.90;99.90;;;;;;5017080;28;20050;-74
2023/05/11 03:22:29;;;;;;;5.85;1.80;;;12.90;99.90;;;;;;5016548;28;20470;-74
2023/05/11 03:24:55;;;;;;;2.78;2.05;;;12.90;99.90;;;;;;5016357;28;20389;-74
2023/05/11 03:27:22;;;;;;;4.13;2.25;;;12.90;99.90;;;;;;5016210;28;20101;-74
2023/05/11 03:29:49;;;;;;;4.45;2.30;;;12.90;99.90;;;;;;4998787;28;20362;-74
2023/05/11 03:32:15;;;;;;;3.55;2.10;;;12.90;99.90;;;;;;5016101;28;20117;-74
2023/05/11 03:34:41;;;;;;;3.60;2.10;;;12.90;99.90;;;;;;4998680;28;20129;-74
2023/05/11 03:37:11;;;;;;;4.15;2.15;;;12.80;99.90;;;;;;5016578;28;20033;-74
2023/05/11 03:39:38;;;;;;;2.83;2.08;;;12.90;99.90;;;;;;4999301;28;20114;-74
2023/05/11 03:42:05;;;;;;;3.97;2.28;;;12.80;99.90;;;;;;5016779;28;20145;-74
2023/05/11 03:44:32;;;;;;;2.78;2.17;;;12.90;99.90;;;;;;4999233;28;20034;-74
2023/05/11 03:46:59;;;;;;;2.90;1.67;;;12.90;99.90;;;;;;5015872;28;20046;-74
2023/05/11 03:49:25;;;;;;;3.38;1.80;;;12.90;99.90;;;;;;5016276;28;20134;-74
2023/05/11 03:51:52;;;;;;;6.82;2.42;;;12.80;99.90;;;;;;4998750;28;20477;-74
2023/05/11 03:54:18;;;;;;;9.25;2.78;;;12.90;99.90;;;;;;5016332;28;20030;-74
2023/05/11 03:56:43;;;;;;;8.65;2.65;;;12.90;99.90;;;;;;5015930;28;20095;-74
2023/05/11 03:59:17;;;;;;;2.47;2.10;;;12.90;99.90;;;;;;4998212;28;20032;-74
2023/05/11 04:01:43;;;;;;;2.75;2.10;;;12.90;99.90;;;;;;5015908;28;20084;-74
2023/05/11 04:04:09;;;;;;;4.35;1.80;;;13.00;99.90;;;;;;5015863;28;20036;-74
2023/05/11 04:06:35;;;;;;;5.63;2.45;;;13.00;99.90;;;;;;5015818;28;20022;-74
2023/05/11 04:09:00;;;;;;;5.25;2.22;;;13.00;99.90;;;;;;4998208;28;20085;-74
2023/05/11 04:11:28;;;;;;;5.03;2.50;;;13.00;99.90;;;;;;5015681;28;20034;-74
2023/05/11 04:13:54;;;;;;;3.08;1.98;;;13.00;99.90;;;;;;5015942;28;20117;-62
2023/05/11 04:16:19;;;;;;;3.10;2.00;;;13.00;99.90;;;;;;5015684;28;20422;-64
2023/05/11 04:18:45;;;;;;;2.50;2.30;;;13.00;99.90;;;;;;5015619;28;20028;-75
2023/05/11 04:21:11;;;;;;;2.45;2.25;;;13.00;99.90;;;;;;5015616;28;20378;-75
2023/05/11 04:23:37;;;;;;;7.40;2.60;;;13.10;99.90;;;;;;5015472;28;20022;-75
2023/05/11 04:26:02;;;;;;;10.35;2.63;;;13.10;99.90;;;;;;5014074;28;20117;-75
2023/05/11 04:28:28;;;;;;;4.78;2.08;;;13.10;99.90;;;;;;5015543;28;20037;-74
2023/05/11 04:30:55;;;;;;;7.43;3.00;;;13.20;99.90;;;;;;5016129;28;20355;-75
2023/05/11 04:33:21;;;;;;;4.80;2.33;;;13.20;99.90;;;;;;5015266;28;20037;-74
2023/05/11 04:35:52;;;;;;;3.10;2.28;;;13.30;99.90;;;;;;5015188;28;20034;-75
2023/05/11 04:38:19;;;;;;;4.90;2.75;;;13.20;99.90;;;;;;4997942;28;20123;-75
2023/05/11 04:40:46;;;;;;;4.28;2.17;;;13.30;99.90;;;;;;5015056;28;20057;-75
2023/05/11 04:43:12;;;;;;;4.63;2.58;;;13.30;99.90;;;;;;4997433;28;20022;-75
2023/05/11 04:45:38;;;;;;;4.22;2.58;;;13.20;99.90;;;;;;4997193;28;20500;-74
2023/05/11 04:48:05;;;;;;;4.03;2.60;;;13.20;99.90;;;;;;5015045;28;20030;-74
2023/05/11 04:50:31;;;;;;;6.05;2.47;;;13.20;99.90;;;;;;5015298;28;20030;-74
2023/05/11 04:52:56;;;;;;;4.28;2.42;;;13.20;99.90;;;;;;5015521;28;20089;-74
2023/05/11 04:55:22;;;;;;;10.23;3.33;;;13.30;99.90;;;;;;5015215;28;20037;-74
2023/05/11 04:57:48;;;;;;;10.40;3.15;;;13.30;99.90;;;;;;4997342;28;20465;-74
2023/05/11 05:00:14;;;;;;;9.98;4.50;;;13.40;99.90;;;;;;5014683;28;20034;-74
2023/05/11 05:02:39;;;;;;;11.13;2.95;;;13.50;99.90;;;;;;5014517;28;20112;-74
2023/05/11 05:05:05;;;;;;;4.97;2.85;;;13.50;99.90;;;;;;4997217;28;20026;-74
2023/05/11 05:07:31;;;;;;;9.15;2.80;;;13.50;99.90;;;;;;5014511;28;20030;-74
2023/05/11 05:09:57;;;;;;;11.80;3.13;;;13.60;99.90;;;;;;5012431;28;20025;-74
2023/05/11 05:12:22;;;;;;;6.45;2.90;;;13.70;99.90;;;;;;5014495;28;20030;-73
2023/05/11 05:14:48;;;;;;;3.65;2.70;;;13.70;99.90;;;;;;4996649;28;20037;-66
2023/05/11 05:17:14;;;;;;;11.10;3.50;;;13.80;99.90;;;;;;5014469;28;20525;-74
2023/05/11 05:19:39;;;;;;;8.43;3.10;;;13.80;99.90;;;;;;5014644;28;20028;-74
2023/05/11 05:22:05;;;;;;;5.55;2.60;;;13.80;99.90;;;;;;4996725;28;20359;-74
2023/05/11 05:24:31;;;;;;;8.18;2.90;;;13.70;99.90;;;;;;5014426;28;20133;-74
2023/05/11 05:26:56;;;;;;;7.82;2.65;;;13.80;99.90;;;;;;5014527;28;20113;-74
2023/05/11 05:29:22;;;;;;;6.30;2.90;;;13.90;99.90;;;;;;5014651;28;20485;-74
2023/05/11 05:31:48;;;;;;;9.65;3.08;;;14.00;99.90;;;;;;5014213;28;20025;-74
2023/05/11 05:34:14;;;;;;;5.82;2.58;;;14.00;99.90;;;;;;5013879;28;20532;-74
2023/05/11 05:36:39;;;;;;;6.13;3.08;;;14.10;99.90;;;;;;5014160;28;20303;-74
2023/05/11 05:39:09;;;;;;;7.80;3.03;;;14.10;99.90;;;;;;5014217;28;20026;-75
2023/05/11 05:41:35;;;;;;;;;;;14.20;99.90;;;;;;4996605;28;20026;-74
2023/05/11 05:44:01;;;;;;;7.05;3.30;;;14.30;99.90;;;;;;5013990;28;19905;-74
2023/05/11 05:46:27;;;;;;;11.18;3.30;;;14.40;99.90;;;;;;5014247;28;20042;-74
2023/05/11 05:48:53;;;;;;;5.18;3.20;;;14.40;99.90;;;;;;5014283;28;20490;-74
2023/05/11 05:51:19;;;;;;;5.55;3.33;;;14.30;99.90;;;;;;5013818;28;20030;-74
2023/05/11 05:53:45;;;;;;;4.07;2.70;;;14.20;99.90;;;;;;5013959;28;20032;-74
2023/05/11 05:56:10;;;;;;;11.57;3.97;;;14.30;99.90;;;;;;5014034;28;20390;-74
2023/05/11 05:58:36;;;;;;;5.32;3.10;;;14.50;99.90;;;;;;5013967;28;20028;-74
2023/05/11 06:01:02;;;;;;;5.22;2.75;;;14.70;99.90;;;;;;5013908;28;20028;-74
2023/05/11 06:03:27;;;;;;;5.55;2.65;;;14.80;99.90;;;;;;5013678;28;20097;-74
2023/05/11 06:05:53;;;;;;;4.68;3.08;;;14.90;99.90;;;;;;5013822;28;20029;-74
2023/05/11 06:08:19;;;;;;;3.78;2.90;;;14.90;99.90;;;;;;5013794;28;20388;-74
2023/05/11 06:10:45;;;;;;;5.43;3.42;;;15.00;99.90;;;;;;5013718;28;20026;-74
2023/05/11 06:13:10;;;;;;;5.55;3.00;;;15.00;99.90;;;;;;5013743;28;20034;-74
2023/05/11 06:15:36;;;;;;;4.85;3.17;;;15.20;99.80;;;;;;5012524;28;20147;-74
2023/05/11 06:18:02;;;;;;;5.30;3.03;;;15.30;98.80;;;;;;5013801;28;20022;-74
2023/05/11 06:20:27;;;;;;;4.35;3.13;;;15.20;98.80;;;;;;5013296;28;20452;-74
2023/05/11 06:22:53;;;;;;;8.75;3.58;;;15.20;98.90;;;;;;5017159;28;20080;-74
2023/05/11 06:25:18;;;;;;;5.22;4.13;;;15.40;98.80;;;;;;5017647;28;20068;-74
2023/05/11 06:27:44;;;;;;;4.13;3.30;;;15.70;98.60;;;;;;5017614;28;20101;-74
2023/05/11 06:30:10;;;;;;;4.22;3.08;;;15.90;97.20;;;;;;5017510;28;20061;-74
2023/05/11 06:32:35;;;;;;;7.47;3.55;;;15.90;96.90;;;;;;5017539;28;20026;-74
2023/05/11 06:35:01;;;;;;;7.10;3.55;;;15.80;97.00;;;;;;5017599;28;20029;-74
2023/05/11 06:37:31;;;;;;;6.05;3.13;;;15.80;96.60;;;;;;5000264;28;20053;-74
2023/05/11 06:39:57;;;;;;;7.85;3.75;;;15.80;97.10;;;;;;4999229;28;20036;-74
2023/05/11 06:42:23;;;;;;;11.60;3.75;;;16.10;96.90;;;;;;5017298;28;20105;-74
2023/05/11 06:44:48;;;;;;;9.88;3.35;;;16.40;96.40;;;;;;4999711;28;20053;-74
2023/05/11 06:47:14;;;;;;;3.60;3.17;;;16.60;95.60;;;;;;5016939;28;20100;-74
2023/05/11 06:49:43;;;;;;;5.40;3.00;;;16.60;95.70;;;;;;5017390;28;20033;-74
2023/05/11 06:52:09;;;;;;;5.45;3.47;;;16.70;95.00;;;;;;5017367;28;20025;-74
2023/05/11 06:54:35;;;;;;;3.90;3.22;;;16.60;95.10;;;;;;5015753;28;20044;-74
2023/05/11 06:57:02;;;;;;;8.88;3.60;;;16.80;95.50;;;;;;5017292;28;20036;-74
2023/05/11 06:59:28;;;;;;;7.85;2.80;;;16.90;94.70;;;;;;4999346;28;20041;-74
2023/05/11 07:01:54;;;;;;;7.63;3.30;;;17.00;94.40;;;;;;5017019;28;20096;-74
2023/05/11 07:04:20;;;;;;;8.45;3.10;;;17.10;94.10;;;;;;5015905;28;20420;-74
2023/05/11 07:06:46;;;;;;;5.25;2.85;;;17.10;93.50;;;;;;4999233;28;20026;-74
2023/05/11 07:09:11;;;;;;;8.07;3.33;;;17.40;93.90;;;;;;5016795;28;20025;-74
2023/05/11 07:11:37;;;;;;;7.47;3.55;;;17.00;92.30;;;;;;5015466;28;20029;-74
2023/05/11 07:14:03;;;;;;;4.28;3.25;;;16.50;92.60;;;;;;5016876;28;20026;-74
2023/05/11 07:16:28;;;;;;;8.75;3.10;;;16.60;93.30;;;;;;4999090;28;20066;-74
2023/05/11 07:18:54;;;;;;;3.85;3.17;;;16.50;93.50;;;;;;5016630;28;20033;-74
2023/05/11 07:21:22;;;;;;;3.70;2.95;;;16.60;93.30;;;;;;5015445;28;20504;-74
2023/05/11 07:23:48;;;;;;;5.90;2.80;;;16.80;92.60;;;;;;5016607;28;20480;-74
2023/05/11 07:26:13;;;;;;;6.90;2.97;;;16.90;93.00;;;;;;5016654;28;20030;-74
2023/05/11 07:28:39;;;;;;;5.85;3.30;;;17.10;92.70;;;;;;5016289;28;20104;-74
2023/05/11 07:31:05;;;;;;;7.15;2.78;;;17.50;92.00;;;;;;5015284;28;20044;-74
2023/05/11 07:33:32;;;;;;;7.25;2.90;;;17.70;91.20;;;;;;5015794;28;20113;-74
2023/05/11 07:35:57;;;;;;;3.25;2.60;;;17.60;90.10;;;;;;4998620;28;20038;-74
2023/05/11 07:38:23;;;;;;;7.13;3.10;;;17.30;90.40;;;;;;5016017;28;20092;-74
2023/05/11 07:40:49;;;;;;;5.22;2.70;;;17.50;90.60;;;;;;5016234;28;20022;-74
2023/05/11 07:43:14;;;;;;;4.20;2.72;;;17.80;90.80;;;;;;4998667;28;20444;-74
2023/05/11 07:45:40;;;;;;;5.57;3.00;;;17.60;87.80;;;;;;5015931;28;20054;-74
2023/05/11 07:48:06;;;;;;;5.53;2.95;;;17.60;90.10;;;;;;5016105;28;20462;-74
2023/05/11 07:50:32;;;;;;;4.68;2.75;;;17.50;89.00;;;;;;4998343;28;20045;-74
2023/05/11 07:52:57;;;;;;;6.57;2.60;;;17.60;90.00;;;;;;5015969;28;20026;-74
2023/05/11 07:55:28;;;;;;;7.05;2.90;;;17.80;90.20;;;;;;5015746;28;20549;-74
2023/05/11 07:57:54;;;;;;;4.43;2.65;;;17.90;88.40;;;;;;4998595;28;20026;-74
2023/05/11 08:00:20;;;;;;;4.72;3.08;;;18.00;87.90;;;;;;5015901;28;20446;-74
2023/05/11 08:02:46;;;;;;;4.40;2.28;;;18.40;87.00;;;;;;5015832;28;20030;-74
2023/05/11 08:05:12;;;;;;;3.00;2.70;;;18.70;86.70;;;;;;5015824;28;20107;-74
2023/05/11 08:07:38;;;;;;;5.15;2.88;;;19.10;85.00;;;;;;5015811;28;20101;-74
2023/05/11 08:10:04;;;;;;;7.90;3.00;;;19.30;82.90;;;;;;5015408;28;20030;-74
2023/05/11 08:12:29;;;;;;;9.07;2.55;;;19.30;81.30;;;;;;4998328;28;20030;-74
2023/05/11 08:14:55;;;;;;;6.55;2.72;;;19.40;80.10;;;;;;5015227;28;20092;-73
2023/05/11 08:17:21;;;;;;;4.93;2.42;;;19.30;79.10;;;;;;5015579;28;20030;-74
2023/05/11 08:19:46;;;;;;;9.55;2.45;;;19.70;78.60;;;;;;5015515;28;20100;-74
2023/05/11 08:22:12;;;;;;;6.97;3.15;;;20.10;77.30;;;;;;4997932;28;20433;-74
2023/05/11 08:24:37;;;;;;;3.88;2.38;;;19.90;75.20;;;;;;5014167;28;20026;-74
2023/05/11 08:27:03;;;;;;;5.25;2.63;;;20.00;75.40;;;;;;5015566;28;20030;-74
2023/05/11 08:29:30;;;;;;;4.35;2.75;;;19.60;74.60;;;;;;4998301;28;20053;-74
2023/05/11 08:31:56;;;;;;;3.90;2.95;;;19.80;74.50;;;;;;5015588;28;20022;-74
2023/05/11 08:34:22;;;;;;;11.35;2.53;;;19.50;74.60;;;;;;5015199;28;20025;-74
2023/05/11 08:36:47;;;;;;;4.10;2.85;;;19.30;75.70;;;;;;4997502;28;20026;-74
2023/05/11 08:39:13;;;;;;;3.45;2.92;;;19.40;75.00;;;;;;5015181;28;20018;-74
2023/05/11 08:41:39;;;;;;;9.65;2.40;;;19.30;75.80;;;;;;4997650;28;20351;-75
2023/05/11 08:44:06;;;;;;;4.97;2.70;;;19.50;76.10;;;;;;4996297;28;20028;-74
2023/05/11 08:46:34;;;;;;;4.95;2.38;;;19.70;74.20;;;;;;4997233;28;20050;-74
2023/05/11 08:49:00;;;;;;;3.15;2.50;;;19.40;73.40;;;;;;4997388;28;20026;-74
2023/05/11 08:51:27;;;;;;;3.13;2.55;;;18.70;75.30;;;;;;5014940;28;20436;-74
2023/05/11 08:53:53;;;;;;;8.23;2.97;;;18.80;76.00;;;;;;4997210;28;20026;-74
2023/05/11 08:56:21;;;;;;;10.70;3.10;;;18.60;75.20;;;;;;4996919;28;20398;-74
2023/05/11 08:58:48;;;;;;;6.57;2.40;;;18.20;77.00;;;;;;5014996;28;20025;-74
2023/05/11 09:01:15;;;;;;;7.28;2.95;;;18.40;76.00;;;;;;5014688;28;20132;-74
2023/05/11 09:03:43;;;;;;;5.07;2.97;;;18.40;75.40;;;;;;5014957;28;20022;-74
2023/05/11 09:06:09;;;;;;;6.70;3.10;;;18.60;76.20;;;;;;5014692;28;20037;-74
2023/05/11 09:08:37;;;;;;;5.25;2.60;;;18.70;75.40;;;;;;5014666;28;20096;-74
2023/05/11 09:11:03;;;;;;;5.15;2.70;;;18.40;75.90;;;;;;5014281;28;20029;-74
2023/05/11 09:13:30;;;;;;;3.25;2.47;;;18.40;74.80;;;;;;5014864;28;20022;-74
2023/05/11 09:15:57;;;;;;;8.68;2.70;;;18.50;77.20;;;;;;5014488;28;20485;-74
2023/05/11 09:18:22;;;;;;;3.15;2.40;;;18.20;76.70;;;;;;5014459;28;20487;-74
2023/05/11 09:20:50;;;;;;;4.85;2.67;;;18.70;77.00;;;;;;4997341;28;20053;-75
2023/05/11 09:23:17;;;;;;;5.13;3.05;;;19.30;73.30;;;;;;4996785;28;20022;-74
2023/05/11 09:25:43;;;;;;;3.08;2.17;;;19.80;73.20;;;;;;4996941;28;20030;-74
2023/05/11 09:28:12;;;;;;;6.75;2.72;;;20.10;68.80;;;;;;5014203;28;20100;-74
2023/05/11 09:30:37;;;;;;;2.38;2.17;;;20.50;69.50;;;;;;5014885;28;20080;-74
2023/05/11 09:33:03;;;;;;;4.05;2.05;;;20.90;66.30;;;;;;5014168;28;20038;-74
2023/05/11 09:35:32;;;;;;;6.85;2.05;;;21.00;65.80;;;;;;5014176;28;20037;-74
2023/05/11 09:38:04;;;;;;;3.63;1.88;;;21.20;65.20;;;;;;5014306;28;20052;-74
2023/05/11 09:40:32;;;;;;;2.72;2.00;;;21.00;63.00;;;;;;4996550;28;20163;-74
2023/05/11 09:42:59;;;;;;;3.47;2.00;;;20.00;61.50;;;;;;4996559;28;20032;-74
2023/05/11 09:45:37;;;;;;;1.85;1.75;;;19.60;63.40;;;;;;5013880;28;20041;-74
2023/05/11 09:48:05;;;;;;;6.43;2.10;;;19.60;64.30;;;;;;4996788;28;20363;-74
2023/05/11 09:50:34;;;;;;;3.40;2.00;;;19.50;64.60;;;;;;5014051;28;20038;-74
2023/05/11 09:53:00;;;;;;;1.58;1.30;;;19.60;65.20;;;;;;5014276;28;20057;-74
2023/05/11 09:55:26;;;;;;;1.60;1.50;;;19.60;63.70;;;;;;5013665;28;20463;-74
2023/05/11 09:57:54;;;;;;;4.30;1.40;;;19.50;62.90;;;;;;5013969;28;20025;-74
2023/05/11 10:00:20;;;;;;;5.78;1.48;;;19.30;63.90;;;;;;5013871;28;20414;-74
2023/05/11 10:03:04;;;;;;;3.90;2.08;;;19.30;63.80;;;;;;4996215;28;20386;-73
2023/05/11 10:05:35;;;;;;;3.58;1.23;;;19.00;63.80;;;;;;4996779;28;20030;-74
2023/05/11 10:08:02;;;;;;;1.83;1.52;;;19.50;63.80;;;;;;5014108;28;20484;-74
2023/05/11 10:10:30;;;;;;;9.13;1.60;;;19.60;61.60;;;;;;5013809;28;20022;-74
2023/05/11 10:12:57;;;;;;;2.15;1.58;;;19.60;62.40;;;;;;4995775;28;20034;-75
2023/05/11 10:15:25;;;;;;;2.25;1.75;;;19.80;63.00;;;;;;5013895;28;20042;-74
2023/05/11 10:17:53;;;;;;;2.85;1.40;;;19.60;62.80;;;;;;4996008;28;20454;-74
2023/05/11 10:20:19;;;;;;;3.95;1.40;;;19.60;61.70;;;;;;5013430;28;20502;-74
2023/05/11 10:22:45;;;;;;;3.47;1.60;;;19.80;61.90;;;;;;5013395;28;20041;-74
2023/05/11 10:25:11;;;;;;;3.88;1.38;;;20.60;59.90;;;;;;5013599;28;20029;-74
2023/05/11 10:27:37;;;;;;;6.90;1.58;;;20.30;59.90;;;;;;5013753;28;20161;-74
2023/05/11 10:30:03;;;;;;;6.95;1.52;;;20.20;59.60;;;;;;5013654;28;20026;-74
2023/05/11 10:32:30;;;;;;;3.03;1.35;;;19.60;59.80;;;;;;4995734;28;20034;-74
2023/05/11 10:34:56;;;;;;;9.73;1.73;;;19.90;60.50;;;;;;4995975;28;20038;-74
2023/05/11 10:37:23;;;;;;;1.55;1.45;;;20.30;59.30;;;;;;5013603;28;20029;-74
2023/05/11 10:39:48;;;;;;;2.92;1.50;;;20.50;58.80;;;;;;5013893;28;20026;-73
2023/05/11 10:42:32;;;;;;;2.17;1.00;;;20.80;57.00;;;;;;4995877;28;20037;-73
2023/05/11 10:45:07;;;;;;;6.13;1.35;;;20.80;58.20;;;;;;4996321;28;20034;-73
2023/05/11 10:47:57;;;;;;;1.33;1.17;;;21.30;56.30;;;;;;5013539;28;20042;-73
2023/05/11 10:51:00;;;;;;;6.53;1.95;;;21.00;56.40;;;;;;5013481;28;20022;-74
2023/05/11 10:53:44;;;;;;;2.58;1.00;;;20.70;56.50;;;;;;4995556;28;20034;-73
2023/05/11 10:56:25;;;;;;;1.45;1.30;;;20.40;57.10;;;;;;5013149;28;20037;-73
2023/05/11 10:59:15;;;;;;;4.95;1.75;;;19.90;56.10;;;;;;4995989;28;20034;-73
2023/05/11 11:01:42;;;;;;;2.92;1.25;;;19.90;56.30;;;;;;5013543;28;20104;-73
2023/05/11 11:04:10;;;;;;;4.40;1.30;;;19.90;57.40;;;;;;5012905;28;20478;-73
2023/05/11 11:06:41;;;;;;;7.78;1.52;;;20.10;56.50;;;;;;4995910;28;20029;-73
2023/05/11 11:09:12;;;;;;;2.03;1.25;;;20.10;56.90;;;;;;5016652;28;20115;-73
2023/05/11 11:11:44;;;;;;;5.53;1.42;;;20.10;57.30;;;;;;5017023;28;20458;-73
2023/05/11 11:14:11;;;;;;;5.93;1.48;;;20.90;56.70;;;;;;5017091;28;20034;-74
2023/05/11 11:16:37;;;;;;;4.47;1.55;;;21.60;56.20;;;;;;4998985;28;20030;-74
2023/05/11 11:19:31;;;;;;;5.03;1.42;;;22.30;54.20;;;;;;5016417;28;20470;-74
2023/05/11 11:21:58;;;;;;;3.88;1.70;;;22.30;53.80;;;;;;4998984;28;20040;-72
2023/05/11 11:24:36;;;;;;;7.38;1.80;;;21.30;53.50;;;;;;5016155;28;20429;-62
2023/05/11 11:27:02;;;;;;;5.28;1.50;;;20.70;56.80;;;;;;5016530;28;20026;-63
2023/05/11 11:29:29;;;;;;;3.17;1.65;;;20.70;56.00;;;;;;5016122;28;20030;-62
2023/05/11 11:31:55;;;;;;;3.17;1.70;;;20.50;57.40;;;;;;5016029;28;20034;-62
2023/05/11 11:34:26;;;;;;;2.05;1.75;;;20.50;57.80;;;;;;5016081;28;20029;-62
